TAP13J LPPT-EIDW
Flight info
| Callsign | TAP13J |
|---|---|
| Flight time | 2h 11m |
| Altitude | 36000 |
| Route | IXIDA DCT PINEK DCT KORUL DCT AMPOP DCT UPCAB DCT IJALA DCT EVRIN DCT BUNED BUNED4L |
| Aircraft | A321/M-SDE3FGHIRWY/LB1 |
Departure
| Time | 2026-05-06 06:31 |
|---|---|
| Airport | Lisbon Humberto Delgado Airport (LPPT) |
Arrival
| Time | 2026-05-06 08:42 |
|---|---|
| Airport | Dublin Airport (EIDW) |
| Time | Latitude | Longitude | Altitude | Speed | Heading |
|---|---|---|---|---|---|
| 2026-05-06 06:14 | 38.76981 | -9.13082 | 337 ft | 0 kts | 79° |
| 2026-05-06 06:16 | 38.76981 | -9.13083 | 337 ft | 0 kts | 79° |
| 2026-05-06 06:23 | 38.76977 | -9.13103 | 334 ft | 4 kts | 78° |
| 2026-05-06 06:24 | 38.76973 | -9.13133 | 334 ft | 3 kts | 82° |
| 2026-05-06 06:24 | 38.76971 | -9.13154 | 335 ft | 2 kts | 109° |
| 2026-05-06 06:24 | 38.76978 | -9.13166 | 336 ft | 2 kts | 172° |
| 2026-05-06 06:24 | 38.76986 | -9.13167 | 337 ft | 0 kts | 166° |
| 2026-05-06 06:26 | 38.76979 | -9.13165 | 335 ft | 4 kts | 168° |
| 2026-05-06 06:26 | 38.76922 | -9.13151 | 336 ft | 12 kts | 168° |
| 2026-05-06 06:27 | 38.76839 | -9.13128 | 337 ft | 12 kts | 168° |
| 2026-05-06 06:27 | 38.76784 | -9.13161 | 340 ft | 8 kts | 244° |
| 2026-05-06 06:27 | 38.76765 | -9.13263 | 341 ft | 15 kts | 258° |
| 2026-05-06 06:27 | 38.76726 | -9.13398 | 352 ft | 16 kts | 225° |
| 2026-05-06 06:28 | 38.76656 | -9.13485 | 351 ft | 13 kts | 248° |
| 2026-05-06 06:28 | 38.76629 | -9.13643 | 355 ft | 23 kts | 258° |
| 2026-05-06 06:28 | 38.76595 | -9.13846 | 347 ft | 23 kts | 258° |
| 2026-05-06 06:28 | 38.76561 | -9.14006 | 350 ft | 16 kts | 238° |
| 2026-05-06 06:29 | 38.76510 | -9.14089 | 353 ft | 11 kts | 235° |
| 2026-05-06 06:29 | 38.76501 | -9.14187 | 349 ft | 15 kts | 286° |
| 2026-05-06 06:29 | 38.76538 | -9.14305 | 334 ft | 15 kts | 292° |
| 2026-05-06 06:29 | 38.76576 | -9.14402 | 332 ft | 9 kts | 323° |
| 2026-05-06 06:30 | 38.76637 | -9.14391 | 335 ft | 12 kts | 21° |
| 2026-05-06 06:30 | 38.76847 | -9.14280 | 350 ft | 65 kts | 22° |
| 2026-05-06 06:30 | 38.77464 | -9.13950 | 363 ft | 124 kts | 23° |
| 2026-05-06 06:30 | 38.78417 | -9.13440 | 371 ft | 170 kts | 22° |
| 2026-05-06 06:31 | 38.79513 | -9.12840 | 926 ft | 171 kts | 21° |
| 2026-05-06 06:31 | 38.80613 | -9.12259 | 1613 ft | 173 kts | 20° |
| 2026-05-06 06:31 | 38.81774 | -9.11612 | 1928 ft | 192 kts | 26° |
| 2026-05-06 06:31 | 38.82966 | -9.10695 | 2226 ft | 210 kts | 29° |
| 2026-05-06 06:32 | 38.84271 | -9.09673 | 2574 ft | 226 kts | 29° |
| 2026-05-06 06:32 | 38.85653 | -9.08592 | 3077 ft | 240 kts | 29° |
| 2026-05-06 06:32 | 38.87106 | -9.07458 | 3807 ft | 247 kts | 29° |
| 2026-05-06 06:32 | 38.88594 | -9.06297 | 4609 ft | 252 kts | 30° |
| 2026-05-06 06:33 | 38.90047 | -9.05004 | 5382 ft | 258 kts | 40° |
| 2026-05-06 06:33 | 38.91468 | -9.03565 | 6124 ft | 262 kts | 27° |
| 2026-05-06 06:33 | 38.93210 | -9.02885 | 6824 ft | 266 kts | 6° |
| 2026-05-06 06:33 | 38.95041 | -9.02617 | 7562 ft | 269 kts | 5° |
| 2026-05-06 06:34 | 38.96913 | -9.02357 | 8298 ft | 272 kts | 5° |
| 2026-05-06 06:34 | 38.98173 | -9.02185 | 8800 ft | 274 kts | 5° |
| 2026-05-06 06:34 | 39.00087 | -9.01920 | 9538 ft | 278 kts | 5° |
| 2026-05-06 06:34 | 39.02692 | -9.01555 | 10301 ft | 290 kts | 4° |
| 2026-05-06 06:35 | 39.04057 | -9.01364 | 10400 ft | 305 kts | 4° |
| 2026-05-06 06:35 | 39.06245 | -9.01057 | 10533 ft | 327 kts | 4° |
| 2026-05-06 06:35 | 39.09351 | -9.00619 | 10894 ft | 346 kts | 4° |
| 2026-05-06 06:35 | 39.11762 | -9.00278 | 11439 ft | 351 kts | 4° |
| 2026-05-06 06:36 | 39.13417 | -9.00043 | 11853 ft | 354 kts | 4° |
| 2026-05-06 06:36 | 39.15866 | -8.99696 | 12468 ft | 357 kts | 4° |
| 2026-05-06 06:36 | 39.18354 | -8.99341 | 12949 ft | 361 kts | 4° |
| 2026-05-06 06:36 | 39.20856 | -8.98983 | 13434 ft | 364 kts | 4° |
| 2026-05-06 06:37 | 39.23382 | -8.98623 | 14024 ft | 367 kts | 4° |
| 2026-05-06 06:37 | 39.25924 | -8.98259 | 14553 ft | 370 kts | 4° |
| 2026-05-06 06:37 | 39.28500 | -8.97890 | 15078 ft | 373 kts | 4° |
| 2026-05-06 06:37 | 39.31094 | -8.97518 | 15594 ft | 376 kts | 4° |
| 2026-05-06 06:38 | 39.33687 | -8.97148 | 16102 ft | 379 kts | 3° |
| 2026-05-06 06:38 | 39.36336 | -8.96767 | 16609 ft | 382 kts | 3° |
| 2026-05-06 06:38 | 39.38991 | -8.96386 | 17109 ft | 385 kts | 3° |
| 2026-05-06 06:38 | 39.41667 | -8.96000 | 17587 ft | 389 kts | 3° |
| 2026-05-06 06:39 | 39.44366 | -8.95614 | 18042 ft | 391 kts | 3° |
| 2026-05-06 06:39 | 39.47084 | -8.95226 | 18465 ft | 394 kts | 3° |
| 2026-05-06 06:39 | 39.49819 | -8.94833 | 18843 ft | 397 kts | 3° |
| 2026-05-06 06:39 | 39.52569 | -8.94437 | 19220 ft | 399 kts | 3° |
| 2026-05-06 06:40 | 39.55310 | -8.94041 | 19601 ft | 401 kts | 3° |
| 2026-05-06 06:40 | 39.58091 | -8.93641 | 19982 ft | 403 kts | 3° |
| 2026-05-06 06:40 | 39.60887 | -8.93240 | 20364 ft | 405 kts | 3° |
| 2026-05-06 06:40 | 39.63701 | -8.92834 | 20749 ft | 408 kts | 3° |
| 2026-05-06 06:41 | 39.66525 | -8.92424 | 21138 ft | 410 kts | 3° |
| 2026-05-06 06:41 | 39.69366 | -8.92010 | 21541 ft | 412 kts | 3° |
| 2026-05-06 06:41 | 39.72223 | -8.91596 | 21943 ft | 414 kts | 3° |
| 2026-05-06 06:41 | 39.75094 | -8.91179 | 22344 ft | 417 kts | 3° |
| 2026-05-06 06:42 | 39.77988 | -8.90759 | 22746 ft | 419 kts | 3° |
| 2026-05-06 06:42 | 39.80875 | -8.90341 | 23154 ft | 421 kts | 3° |
| 2026-05-06 06:42 | 39.83812 | -8.89917 | 23559 ft | 424 kts | 3° |
| 2026-05-06 06:42 | 39.86723 | -8.89498 | 23898 ft | 426 kts | 3° |
| 2026-05-06 06:43 | 39.89694 | -8.89066 | 24235 ft | 427 kts | 3° |
| 2026-05-06 06:43 | 39.92631 | -8.88638 | 24552 ft | 429 kts | 3° |
| 2026-05-06 06:43 | 39.95629 | -8.88200 | 24884 ft | 431 kts | 3° |
| 2026-05-06 06:43 | 39.98615 | -8.87762 | 25211 ft | 433 kts | 3° |
| 2026-05-06 06:44 | 40.01606 | -8.87320 | 25534 ft | 435 kts | 3° |
| 2026-05-06 06:44 | 40.04642 | -8.86874 | 25864 ft | 437 kts | 3° |
| 2026-05-06 06:44 | 40.07643 | -8.86438 | 26184 ft | 439 kts | 3° |
| 2026-05-06 06:44 | 40.10705 | -8.85991 | 26509 ft | 441 kts | 3° |
| 2026-05-06 06:45 | 40.13723 | -8.85552 | 26826 ft | 442 kts | 3° |
| 2026-05-06 06:45 | 40.16795 | -8.85105 | 27144 ft | 444 kts | 3° |
| 2026-05-06 06:45 | 40.19894 | -8.84652 | 27454 ft | 446 kts | 3° |
| 2026-05-06 06:45 | 40.22980 | -8.84201 | 27754 ft | 447 kts | 3° |
| 2026-05-06 06:46 | 40.26045 | -8.83754 | 28040 ft | 449 kts | 3° |
| 2026-05-06 06:46 | 40.29153 | -8.83297 | 28315 ft | 451 kts | 3° |
| 2026-05-06 06:46 | 40.32297 | -8.82832 | 28578 ft | 452 kts | 3° |
| 2026-05-06 06:46 | 40.35408 | -8.82372 | 28822 ft | 453 kts | 3° |
| 2026-05-06 06:47 | 40.38554 | -8.81906 | 29052 ft | 455 kts | 3° |
| 2026-05-06 06:47 | 40.41717 | -8.81439 | 29288 ft | 455 kts | 3° |
| 2026-05-06 06:47 | 40.44835 | -8.80976 | 29598 ft | 454 kts | 3° |
| 2026-05-06 06:47 | 40.48005 | -8.80505 | 29913 ft | 453 kts | 3° |
| 2026-05-06 06:48 | 40.51126 | -8.80041 | 30196 ft | 453 kts | 3° |
| 2026-05-06 06:48 | 40.54218 | -8.79585 | 30444 ft | 452 kts | 3° |
| 2026-05-06 06:48 | 40.57347 | -8.79124 | 30702 ft | 451 kts | 3° |
| 2026-05-06 06:48 | 40.60480 | -8.78660 | 30960 ft | 451 kts | 3° |
| 2026-05-06 06:49 | 40.63579 | -8.78198 | 31211 ft | 450 kts | 3° |
| 2026-05-06 06:49 | 40.66704 | -8.77730 | 31469 ft | 450 kts | 3° |
| 2026-05-06 06:49 | 40.69823 | -8.77264 | 31724 ft | 450 kts | 3° |
| 2026-05-06 06:49 | 40.72921 | -8.76803 | 31973 ft | 449 kts | 3° |
| 2026-05-06 06:50 | 40.76008 | -8.76341 | 32228 ft | 449 kts | 3° |
| 2026-05-06 06:50 | 40.79125 | -8.75874 | 32488 ft | 449 kts | 3° |
| 2026-05-06 06:50 | 40.82223 | -8.75411 | 32743 ft | 448 kts | 3° |
| 2026-05-06 06:50 | 40.85319 | -8.74948 | 33000 ft | 448 kts | 3° |
| 2026-05-06 06:51 | 40.88379 | -8.74493 | 33248 ft | 448 kts | 3° |
| 2026-05-06 06:51 | 40.91447 | -8.74036 | 33491 ft | 448 kts | 3° |
| 2026-05-06 06:51 | 40.94546 | -8.73571 | 33742 ft | 447 kts | 3° |
| 2026-05-06 06:51 | 40.97651 | -8.73104 | 33993 ft | 447 kts | 3° |
| 2026-05-06 06:52 | 41.00750 | -8.72636 | 34210 ft | 447 kts | 3° |
| 2026-05-06 06:52 | 41.03811 | -8.72173 | 34399 ft | 447 kts | 3° |
| 2026-05-06 06:52 | 41.06889 | -8.71709 | 34593 ft | 447 kts | 3° |
| 2026-05-06 06:52 | 41.09992 | -8.71242 | 34802 ft | 447 kts | 3° |
| 2026-05-06 06:53 | 41.13096 | -8.70777 | 34989 ft | 447 kts | 3° |
| 2026-05-06 06:53 | 41.16158 | -8.70316 | 35164 ft | 447 kts | 3° |
| 2026-05-06 06:53 | 41.19246 | -8.69849 | 35339 ft | 447 kts | 3° |
| 2026-05-06 06:53 | 41.22361 | -8.69378 | 35514 ft | 447 kts | 3° |
| 2026-05-06 06:54 | 41.25451 | -8.68910 | 35695 ft | 447 kts | 3° |
| 2026-05-06 06:54 | 41.28516 | -8.68444 | 35867 ft | 447 kts | 3° |
| 2026-05-06 06:54 | 41.31613 | -8.67970 | 36023 ft | 447 kts | 4° |
| 2026-05-06 06:55 | 41.37759 | -8.67029 | 36051 ft | 445 kts | 3° |
| 2026-05-06 06:55 | 41.43937 | -8.66088 | 36050 ft | 445 kts | 3° |
| 2026-05-06 06:56 | 41.50108 | -8.65154 | 36049 ft | 452 kts | 3° |
| 2026-05-06 06:56 | 41.56384 | -8.64207 | 36052 ft | 459 kts | 4° |
| 2026-05-06 06:57 | 41.62776 | -8.63218 | 36050 ft | 461 kts | 4° |
| 2026-05-06 06:57 | 41.69139 | -8.62242 | 36049 ft | 461 kts | 4° |
| 2026-05-06 06:58 | 41.75490 | -8.61264 | 36051 ft | 461 kts | 4° |
| 2026-05-06 06:58 | 41.81863 | -8.60273 | 36057 ft | 461 kts | 4° |
| 2026-05-06 06:59 | 41.88098 | -8.58216 | 36065 ft | 466 kts | 19° |
| 2026-05-06 06:59 | 41.94129 | -8.54970 | 36066 ft | 467 kts | 19° |
| 2026-05-06 07:00 | 42.00169 | -8.51722 | 36070 ft | 467 kts | 19° |
| 2026-05-06 07:00 | 42.06194 | -8.48489 | 36071 ft | 466 kts | 19° |
| 2026-05-06 07:01 | 42.12229 | -8.45258 | 36074 ft | 466 kts | 19° |
| 2026-05-06 07:01 | 42.18260 | -8.42008 | 36070 ft | 466 kts | 19° |
| 2026-05-06 07:02 | 42.24249 | -8.38771 | 36073 ft | 467 kts | 19° |
| 2026-05-06 07:02 | 42.30262 | -8.35510 | 36081 ft | 467 kts | 19° |
| 2026-05-06 07:03 | 42.36314 | -8.32228 | 36081 ft | 466 kts | 19° |
| 2026-05-06 07:03 | 42.42341 | -8.28957 | 36076 ft | 466 kts | 19° |
| 2026-05-06 07:04 | 42.48357 | -8.25678 | 36078 ft | 467 kts | 19° |
| 2026-05-06 07:04 | 42.54387 | -8.22389 | 36079 ft | 467 kts | 19° |
| 2026-05-06 07:05 | 42.60396 | -8.19105 | 36082 ft | 467 kts | 19° |
| 2026-05-06 07:05 | 42.66423 | -8.15806 | 36082 ft | 467 kts | 19° |
| 2026-05-06 07:06 | 42.72463 | -8.12486 | 36081 ft | 466 kts | 19° |
| 2026-05-06 07:06 | 42.78441 | -8.09196 | 36083 ft | 466 kts | 19° |
| 2026-05-06 07:07 | 42.84461 | -8.05876 | 36081 ft | 466 kts | 19° |
| 2026-05-06 07:07 | 42.90481 | -8.02550 | 36080 ft | 465 kts | 19° |
| 2026-05-06 07:08 | 42.96475 | -7.99245 | 36081 ft | 465 kts | 19° |
| 2026-05-06 07:08 | 43.02443 | -7.95931 | 36078 ft | 464 kts | 19° |
| 2026-05-06 07:09 | 43.08422 | -7.92596 | 36080 ft | 464 kts | 19° |
| 2026-05-06 07:09 | 43.14404 | -7.89270 | 36083 ft | 464 kts | 19° |
| 2026-05-06 07:10 | 43.20365 | -7.85947 | 36082 ft | 464 kts | 20° |
| 2026-05-06 07:10 | 43.26340 | -7.82596 | 36089 ft | 463 kts | 20° |
| 2026-05-06 07:11 | 43.32332 | -7.79225 | 36088 ft | 463 kts | 20° |
| 2026-05-06 07:11 | 43.38268 | -7.75892 | 36085 ft | 463 kts | 20° |
| 2026-05-06 07:12 | 43.44234 | -7.72541 | 36087 ft | 463 kts | 20° |
| 2026-05-06 07:12 | 43.50178 | -7.69189 | 36085 ft | 463 kts | 20° |
| 2026-05-06 07:13 | 43.56145 | -7.65817 | 36087 ft | 463 kts | 20° |
| 2026-05-06 07:13 | 43.62107 | -7.62429 | 36084 ft | 462 kts | 20° |
| 2026-05-06 07:14 | 43.68017 | -7.59067 | 36083 ft | 462 kts | 20° |
| 2026-05-06 07:14 | 43.73965 | -7.55689 | 36083 ft | 462 kts | 20° |
| 2026-05-06 07:15 | 43.79920 | -7.52296 | 36085 ft | 462 kts | 20° |
| 2026-05-06 07:15 | 43.85864 | -7.48889 | 36086 ft | 462 kts | 20° |
| 2026-05-06 07:16 | 43.91777 | -7.45496 | 36086 ft | 462 kts | 20° |
| 2026-05-06 07:16 | 43.97728 | -7.42092 | 36086 ft | 462 kts | 20° |
| 2026-05-06 07:17 | 44.03673 | -7.38678 | 36086 ft | 461 kts | 20° |
| 2026-05-06 07:17 | 44.09583 | -7.35263 | 36080 ft | 461 kts | 20° |
| 2026-05-06 07:18 | 44.15492 | -7.31837 | 36082 ft | 460 kts | 20° |
| 2026-05-06 07:18 | 44.21406 | -7.28419 | 36076 ft | 460 kts | 20° |
| 2026-05-06 07:19 | 44.27311 | -7.24997 | 36075 ft | 459 kts | 20° |
| 2026-05-06 07:19 | 44.33165 | -7.21583 | 36075 ft | 459 kts | 21° |
| 2026-05-06 07:20 | 44.39052 | -7.18144 | 36076 ft | 458 kts | 20° |
| 2026-05-06 07:20 | 44.44918 | -7.14722 | 36074 ft | 457 kts | 20° |
| 2026-05-06 07:21 | 44.50819 | -7.11278 | 36073 ft | 457 kts | 21° |
| 2026-05-06 07:21 | 44.56654 | -7.07853 | 36073 ft | 457 kts | 21° |
| 2026-05-06 07:22 | 44.62525 | -7.04388 | 36069 ft | 457 kts | 21° |
| 2026-05-06 07:22 | 44.68411 | -7.00923 | 36068 ft | 457 kts | 21° |
| 2026-05-06 07:23 | 44.74275 | -6.97461 | 36065 ft | 457 kts | 21° |
| 2026-05-06 07:23 | 44.80094 | -6.94014 | 36065 ft | 456 kts | 21° |
| 2026-05-06 07:24 | 44.86178 | -6.91556 | 36067 ft | 452 kts | 5° |
| 2026-05-06 07:24 | 44.92398 | -6.90644 | 36062 ft | 452 kts | 5° |
| 2026-05-06 07:25 | 44.97619 | -6.89871 | 36062 ft | 452 kts | 5° |
| 2026-05-06 07:25 | 45.03866 | -6.88920 | 36057 ft | 452 kts | 5° |
| 2026-05-06 07:26 | 45.10146 | -6.87965 | 36066 ft | 452 kts | 5° |
| 2026-05-06 07:26 | 45.16384 | -6.87012 | 36066 ft | 452 kts | 5° |
| 2026-05-06 07:27 | 45.22683 | -6.86055 | 36064 ft | 452 kts | 5° |
| 2026-05-06 07:27 | 45.28919 | -6.85111 | 36062 ft | 452 kts | 5° |
| 2026-05-06 07:28 | 45.35172 | -6.84153 | 36061 ft | 452 kts | 5° |
| 2026-05-06 07:28 | 45.44579 | -6.82718 | 36061 ft | 452 kts | 5° |
| 2026-05-06 07:29 | 45.50827 | -6.81760 | 36061 ft | 453 kts | 5° |
| 2026-05-06 07:29 | 45.57084 | -6.80792 | 36056 ft | 453 kts | 5° |
| 2026-05-06 07:30 | 45.63335 | -6.79825 | 36058 ft | 453 kts | 5° |
| 2026-05-06 07:30 | 45.69588 | -6.78855 | 36055 ft | 453 kts | 5° |
| 2026-05-06 07:31 | 45.75861 | -6.77891 | 36063 ft | 453 kts | 5° |
| 2026-05-06 07:31 | 45.82118 | -6.76931 | 36062 ft | 453 kts | 5° |
| 2026-05-06 07:32 | 45.88409 | -6.75948 | 36062 ft | 453 kts | 5° |
| 2026-05-06 07:32 | 45.94651 | -6.74971 | 36059 ft | 453 kts | 5° |
| 2026-05-06 07:33 | 46.00928 | -6.73989 | 36067 ft | 453 kts | 5° |
| 2026-05-06 07:33 | 46.07215 | -6.73007 | 36058 ft | 454 kts | 5° |
| 2026-05-06 07:34 | 46.13469 | -6.72025 | 36065 ft | 454 kts | 5° |
| 2026-05-06 07:34 | 46.19741 | -6.71035 | 36068 ft | 454 kts | 5° |
| 2026-05-06 07:35 | 46.26025 | -6.70053 | 36059 ft | 454 kts | 5° |
| 2026-05-06 07:35 | 46.32327 | -6.69065 | 36068 ft | 454 kts | 5° |
| 2026-05-06 07:36 | 46.38581 | -6.68072 | 36061 ft | 454 kts | 5° |
| 2026-05-06 07:36 | 46.44871 | -6.67060 | 36065 ft | 455 kts | 5° |
| 2026-05-06 07:37 | 46.51165 | -6.66052 | 36062 ft | 455 kts | 5° |
| 2026-05-06 07:37 | 46.57472 | -6.65045 | 36063 ft | 455 kts | 5° |
| 2026-05-06 07:38 | 46.63749 | -6.64046 | 36064 ft | 455 kts | 5° |
| 2026-05-06 07:38 | 46.70064 | -6.63036 | 36062 ft | 456 kts | 5° |
| 2026-05-06 07:39 | 46.76399 | -6.62018 | 36062 ft | 456 kts | 5° |
| 2026-05-06 07:39 | 46.82679 | -6.61011 | 36060 ft | 456 kts | 5° |
| 2026-05-06 07:40 | 46.88978 | -6.59991 | 36061 ft | 456 kts | 5° |
| 2026-05-06 07:40 | 46.95323 | -6.58975 | 36061 ft | 457 kts | 5° |
| 2026-05-06 07:41 | 47.01602 | -6.57958 | 36062 ft | 457 kts | 5° |
| 2026-05-06 07:41 | 47.07941 | -6.56914 | 36063 ft | 457 kts | 5° |
| 2026-05-06 07:42 | 47.14258 | -6.55882 | 36061 ft | 457 kts | 5° |
| 2026-05-06 07:42 | 47.20553 | -6.54852 | 36061 ft | 457 kts | 5° |
| 2026-05-06 07:43 | 47.26909 | -6.53811 | 36061 ft | 458 kts | 5° |
| 2026-05-06 07:43 | 47.33234 | -6.52774 | 36060 ft | 458 kts | 5° |
| 2026-05-06 07:44 | 47.39546 | -6.51745 | 36058 ft | 458 kts | 5° |
| 2026-05-06 07:44 | 47.45893 | -6.50701 | 36058 ft | 458 kts | 5° |
| 2026-05-06 07:45 | 47.52249 | -6.49649 | 36058 ft | 458 kts | 5° |
| 2026-05-06 07:45 | 47.58564 | -6.48605 | 36057 ft | 458 kts | 5° |
| 2026-05-06 07:46 | 47.64915 | -6.47547 | 36054 ft | 458 kts | 5° |
| 2026-05-06 07:46 | 47.71275 | -6.46481 | 36055 ft | 458 kts | 5° |
| 2026-05-06 07:47 | 47.77587 | -6.45435 | 36054 ft | 459 kts | 5° |
| 2026-05-06 07:47 | 47.83949 | -6.44368 | 36057 ft | 459 kts | 5° |
| 2026-05-06 07:48 | 47.90261 | -6.43305 | 36058 ft | 459 kts | 5° |
| 2026-05-06 07:48 | 47.96622 | -6.42227 | 36058 ft | 459 kts | 5° |
| 2026-05-06 07:49 | 48.02976 | -6.41162 | 36058 ft | 458 kts | 5° |
| 2026-05-06 07:49 | 48.09287 | -6.40108 | 36058 ft | 459 kts | 5° |
| 2026-05-06 07:50 | 48.15649 | -6.39030 | 36061 ft | 459 kts | 5° |
| 2026-05-06 07:50 | 48.21977 | -6.37955 | 36054 ft | 459 kts | 5° |
| 2026-05-06 07:51 | 48.28330 | -6.36879 | 36054 ft | 458 kts | 5° |
| 2026-05-06 07:51 | 48.34649 | -6.35799 | 36053 ft | 459 kts | 5° |
| 2026-05-06 07:52 | 48.40976 | -6.34715 | 36056 ft | 459 kts | 5° |
| 2026-05-06 07:52 | 48.47346 | -6.33626 | 36055 ft | 458 kts | 5° |
| 2026-05-06 07:53 | 48.53597 | -6.32541 | 36034 ft | 443 kts | 5° |
| 2026-05-06 07:53 | 48.59699 | -6.31485 | 36030 ft | 440 kts | 5° |
| 2026-05-06 07:54 | 48.65779 | -6.30436 | 36039 ft | 439 kts | 5° |
| 2026-05-06 07:54 | 48.71860 | -6.29381 | 36035 ft | 439 kts | 5° |
| 2026-05-06 07:55 | 48.77903 | -6.28337 | 36033 ft | 439 kts | 5° |
| 2026-05-06 07:55 | 48.83998 | -6.27279 | 36031 ft | 439 kts | 5° |
| 2026-05-06 07:56 | 48.90078 | -6.26222 | 36036 ft | 440 kts | 5° |
| 2026-05-06 07:56 | 48.96122 | -6.25166 | 36039 ft | 440 kts | 5° |
| 2026-05-06 07:57 | 49.02201 | -6.24091 | 36040 ft | 440 kts | 5° |
| 2026-05-06 07:57 | 49.08288 | -6.23017 | 36046 ft | 440 kts | 5° |
| 2026-05-06 07:58 | 49.14384 | -6.21947 | 36040 ft | 440 kts | 5° |
| 2026-05-06 07:58 | 49.20427 | -6.20889 | 36043 ft | 440 kts | 5° |
| 2026-05-06 07:59 | 49.26502 | -6.19813 | 36040 ft | 440 kts | 5° |
| 2026-05-06 07:59 | 49.32596 | -6.18729 | 36043 ft | 440 kts | 5° |
| 2026-05-06 08:00 | 49.38682 | -6.17640 | 36038 ft | 440 kts | 5° |
| 2026-05-06 08:00 | 49.44753 | -6.16556 | 36040 ft | 440 kts | 5° |
| 2026-05-06 08:01 | 49.50816 | -6.15472 | 36038 ft | 440 kts | 5° |
| 2026-05-06 08:01 | 49.56897 | -6.15527 | 36042 ft | 437 kts | 354° |
| 2026-05-06 08:02 | 49.62986 | -6.16266 | 36032 ft | 437 kts | 354° |
| 2026-05-06 08:02 | 49.69037 | -6.16986 | 36038 ft | 438 kts | 354° |
| 2026-05-06 08:03 | 49.75106 | -6.17708 | 36036 ft | 438 kts | 354° |
| 2026-05-06 08:03 | 49.81192 | -6.18437 | 36030 ft | 438 kts | 354° |
| 2026-05-06 08:04 | 49.87290 | -6.19162 | 36029 ft | 438 kts | 354° |
| 2026-05-06 08:04 | 49.93376 | -6.19899 | 36029 ft | 439 kts | 354° |
| 2026-05-06 08:05 | 49.99467 | -6.20635 | 36031 ft | 439 kts | 354° |
| 2026-05-06 08:05 | 50.05562 | -6.21368 | 36035 ft | 439 kts | 354° |
| 2026-05-06 08:06 | 50.11662 | -6.22103 | 36032 ft | 440 kts | 354° |
| 2026-05-06 08:06 | 50.17741 | -6.22836 | 36036 ft | 440 kts | 354° |
| 2026-05-06 08:07 | 50.23845 | -6.23586 | 36039 ft | 440 kts | 354° |
| 2026-05-06 08:07 | 50.29947 | -6.24332 | 36037 ft | 440 kts | 354° |
| 2026-05-06 08:08 | 50.35037 | -6.24947 | 36038 ft | 440 kts | 354° |
| 2026-05-06 08:08 | 50.41140 | -6.25693 | 36037 ft | 440 kts | 354° |
| 2026-05-06 08:09 | 50.47250 | -6.26440 | 36040 ft | 440 kts | 354° |
| 2026-05-06 08:09 | 50.53357 | -6.27188 | 36041 ft | 440 kts | 353° |
| 2026-05-06 08:10 | 50.59470 | -6.27942 | 36044 ft | 441 kts | 353° |
| 2026-05-06 08:10 | 50.65591 | -6.28706 | 36051 ft | 441 kts | 353° |
| 2026-05-06 08:11 | 50.71716 | -6.29474 | 36049 ft | 441 kts | 353° |
| 2026-05-06 08:11 | 50.77827 | -6.30231 | 36051 ft | 441 kts | 353° |
| 2026-05-06 08:12 | 50.83972 | -6.30986 | 36054 ft | 442 kts | 353° |
| 2026-05-06 08:12 | 50.90068 | -6.31823 | 36055 ft | 440 kts | 349° |
| 2026-05-06 08:13 | 50.96091 | -6.33592 | 36052 ft | 440 kts | 347° |
| 2026-05-06 08:13 | 51.02071 | -6.35363 | 36039 ft | 429 kts | 347° |
| 2026-05-06 08:14 | 51.07897 | -6.37079 | 36047 ft | 424 kts | 347° |
| 2026-05-06 08:14 | 51.13669 | -6.38799 | 36045 ft | 420 kts | 347° |
| 2026-05-06 08:15 | 51.19403 | -6.40503 | 36046 ft | 418 kts | 347° |
| 2026-05-06 08:15 | 51.25127 | -6.42210 | 36046 ft | 418 kts | 347° |
| 2026-05-06 08:16 | 51.30856 | -6.43891 | 36048 ft | 418 kts | 348° |
| 2026-05-06 08:16 | 51.36598 | -6.45395 | 36052 ft | 418 kts | 348° |
| 2026-05-06 08:17 | 51.42343 | -6.46839 | 36055 ft | 418 kts | 348° |
| 2026-05-06 08:17 | 51.48079 | -6.48320 | 36058 ft | 418 kts | 348° |
| 2026-05-06 08:18 | 51.53808 | -6.49834 | 36059 ft | 418 kts | 348° |
| 2026-05-06 08:18 | 51.59545 | -6.51367 | 36058 ft | 418 kts | 348° |
| 2026-05-06 08:19 | 51.65283 | -6.52880 | 36059 ft | 418 kts | 348° |
| 2026-05-06 08:19 | 51.71029 | -6.54396 | 36056 ft | 418 kts | 348° |
| 2026-05-06 08:20 | 51.76741 | -6.55921 | 36058 ft | 417 kts | 348° |
| 2026-05-06 08:20 | 51.82548 | -6.56660 | 36061 ft | 419 kts | 355° |
| 2026-05-06 08:21 | 51.88379 | -6.57094 | 35838 ft | 418 kts | 354° |
| 2026-05-06 08:21 | 51.91285 | -6.57322 | 35209 ft | 418 kts | 354° |
| 2026-05-06 08:21 | 51.94193 | -6.57568 | 34596 ft | 418 kts | 354° |
| 2026-05-06 08:22 | 51.97081 | -6.57806 | 33998 ft | 418 kts | 354° |
| 2026-05-06 08:22 | 52.00009 | -6.58041 | 33275 ft | 419 kts | 354° |
| 2026-05-06 08:22 | 52.02901 | -6.58270 | 32538 ft | 420 kts | 354° |
| 2026-05-06 08:22 | 52.05826 | -6.58499 | 31780 ft | 421 kts | 354° |
| 2026-05-06 08:23 | 52.08762 | -6.58729 | 31029 ft | 423 kts | 354° |
| 2026-05-06 08:23 | 52.11706 | -6.58961 | 30267 ft | 424 kts | 354° |
| 2026-05-06 08:23 | 52.14666 | -6.59194 | 29432 ft | 426 kts | 354° |
| 2026-05-06 08:23 | 52.17613 | -6.59431 | 28806 ft | 421 kts | 354° |
| 2026-05-06 08:24 | 52.20527 | -6.59660 | 28194 ft | 417 kts | 354° |
| 2026-05-06 08:24 | 52.23408 | -6.59886 | 27584 ft | 412 kts | 354° |
| 2026-05-06 08:24 | 52.26232 | -6.60108 | 27001 ft | 409 kts | 354° |
| 2026-05-06 08:24 | 52.29059 | -6.60330 | 26412 ft | 405 kts | 354° |
| 2026-05-06 08:25 | 52.31873 | -6.60553 | 25829 ft | 401 kts | 354° |
| 2026-05-06 08:25 | 52.34656 | -6.60777 | 25234 ft | 397 kts | 354° |
| 2026-05-06 08:25 | 52.37385 | -6.60998 | 24650 ft | 393 kts | 354° |
| 2026-05-06 08:25 | 52.40087 | -6.61213 | 24069 ft | 390 kts | 354° |
| 2026-05-06 08:26 | 52.42784 | -6.61429 | 23460 ft | 386 kts | 354° |
| 2026-05-06 08:26 | 52.45473 | -6.61647 | 22765 ft | 382 kts | 354° |
| 2026-05-06 08:26 | 52.48127 | -6.61861 | 22104 ft | 379 kts | 355° |
| 2026-05-06 08:26 | 52.50746 | -6.62049 | 21468 ft | 376 kts | 358° |
| 2026-05-06 08:27 | 52.53294 | -6.61389 | 20887 ft | 377 kts | 18° |
| 2026-05-06 08:27 | 52.55690 | -6.59654 | 20288 ft | 375 kts | 23° |
| 2026-05-06 08:27 | 52.58059 | -6.57769 | 19396 ft | 383 kts | 24° |
| 2026-05-06 08:27 | 52.60492 | -6.55832 | 18902 ft | 391 kts | 24° |
| 2026-05-06 08:28 | 52.62953 | -6.53891 | 18426 ft | 391 kts | 23° |
| 2026-05-06 08:28 | 52.65409 | -6.52019 | 17831 ft | 387 kts | 22° |
| 2026-05-06 08:28 | 52.67860 | -6.50199 | 17165 ft | 383 kts | 22° |
| 2026-05-06 08:28 | 52.70281 | -6.48423 | 16523 ft | 379 kts | 22° |
| 2026-05-06 08:29 | 52.72652 | -6.46686 | 15908 ft | 376 kts | 22° |
| 2026-05-06 08:29 | 52.75053 | -6.44918 | 15393 ft | 374 kts | 22° |
| 2026-05-06 08:29 | 52.77409 | -6.43169 | 14895 ft | 372 kts | 22° |
| 2026-05-06 08:29 | 52.79763 | -6.41410 | 14405 ft | 369 kts | 22° |
| 2026-05-06 08:30 | 52.82105 | -6.39651 | 13910 ft | 367 kts | 22° |
| 2026-05-06 08:30 | 52.84405 | -6.37920 | 13380 ft | 364 kts | 22° |
| 2026-05-06 08:30 | 52.86705 | -6.36189 | 12845 ft | 361 kts | 22° |
| 2026-05-06 08:30 | 52.88983 | -6.34475 | 12320 ft | 358 kts | 22° |
| 2026-05-06 08:31 | 52.91240 | -6.32777 | 11804 ft | 355 kts | 22° |
| 2026-05-06 08:31 | 52.93466 | -6.31099 | 11360 ft | 347 kts | 22° |
| 2026-05-06 08:31 | 52.95628 | -6.29465 | 11081 ft | 336 kts | 22° |
| 2026-05-06 08:31 | 52.97707 | -6.27890 | 10833 ft | 325 kts | 22° |
| 2026-05-06 08:32 | 52.99718 | -6.26368 | 10588 ft | 315 kts | 22° |
| 2026-05-06 08:32 | 53.01696 | -6.24872 | 10341 ft | 306 kts | 22° |
| 2026-05-06 08:32 | 53.03619 | -6.23416 | 10094 ft | 297 kts | 22° |
| 2026-05-06 08:32 | 53.05457 | -6.22028 | 9839 ft | 290 kts | 22° |
| 2026-05-06 08:33 | 53.07276 | -6.20657 | 9634 ft | 285 kts | 22° |
| 2026-05-06 08:33 | 53.09083 | -6.19291 | 9441 ft | 284 kts | 22° |
| 2026-05-06 08:33 | 53.10889 | -6.17921 | 9000 ft | 283 kts | 23° |
| 2026-05-06 08:33 | 53.12674 | -6.16563 | 8587 ft | 281 kts | 23° |
| 2026-05-06 08:34 | 53.14447 | -6.15214 | 8200 ft | 279 kts | 23° |
| 2026-05-06 08:34 | 53.17932 | -6.12554 | 7401 ft | 275 kts | 24° |
| 2026-05-06 08:34 | 53.19668 | -6.11225 | 7003 ft | 273 kts | 24° |
| 2026-05-06 08:35 | 53.21399 | -6.09900 | 6627 ft | 271 kts | 24° |
| 2026-05-06 08:35 | 53.23102 | -6.08600 | 6207 ft | 265 kts | 25° |
| 2026-05-06 08:35 | 53.24746 | -6.07345 | 5800 ft | 255 kts | 24° |
| 2026-05-06 08:35 | 53.26329 | -6.06137 | 5410 ft | 246 kts | 24° |
| 2026-05-06 08:36 | 53.27849 | -6.04975 | 5092 ft | 235 kts | 24° |
| 2026-05-06 08:36 | 53.29309 | -6.03858 | 4792 ft | 228 kts | 24° |
| 2026-05-06 08:36 | 53.30750 | -6.02756 | 4477 ft | 227 kts | 24° |
| 2026-05-06 08:36 | 53.32174 | -6.01660 | 4220 ft | 223 kts | 24° |
| 2026-05-06 08:37 | 53.33579 | -6.00575 | 3942 ft | 221 kts | 24° |
| 2026-05-06 08:37 | 53.34947 | -5.99519 | 3648 ft | 217 kts | 24° |
| 2026-05-06 08:37 | 53.36319 | -5.98460 | 3266 ft | 216 kts | 24° |
| 2026-05-06 08:37 | 53.37671 | -5.97417 | 3011 ft | 210 kts | 24° |
| 2026-05-06 08:38 | 53.38973 | -5.96464 | 2998 ft | 201 kts | 17° |
| 2026-05-06 08:38 | 53.40342 | -5.96405 | 2880 ft | 198 kts | 344° |
| 2026-05-06 08:38 | 53.41504 | -5.97569 | 2746 ft | 197 kts | 313° |
| 2026-05-06 08:38 | 53.42108 | -5.99585 | 2627 ft | 196 kts | 279° |
| 2026-05-06 08:39 | 53.42249 | -6.01861 | 2535 ft | 196 kts | 276° |
| 2026-05-06 08:39 | 53.42373 | -6.04138 | 2506 ft | 196 kts | 276° |
| 2026-05-06 08:39 | 53.42498 | -6.06366 | 2403 ft | 186 kts | 276° |
| 2026-05-06 08:39 | 53.42618 | -6.08481 | 2189 ft | 178 kts | 276° |
| 2026-05-06 08:40 | 53.42730 | -6.10440 | 1968 ft | 161 kts | 276° |
| 2026-05-06 08:40 | 53.42831 | -6.12226 | 1750 ft | 148 kts | 276° |
| 2026-05-06 08:40 | 53.42926 | -6.13905 | 1533 ft | 142 kts | 276° |
| 2026-05-06 08:40 | 53.43015 | -6.15501 | 1356 ft | 139 kts | 277° |
| 2026-05-06 08:41 | 53.43105 | -6.17119 | 1178 ft | 140 kts | 276° |
| 2026-05-06 08:41 | 53.43197 | -6.18761 | 951 ft | 139 kts | 277° |
| 2026-05-06 08:41 | 53.43287 | -6.20354 | 754 ft | 136 kts | 276° |
| 2026-05-06 08:41 | 53.43376 | -6.21902 | 581 ft | 136 kts | 276° |
| 2026-05-06 08:42 | 53.43464 | -6.23476 | 390 ft | 135 kts | 276° |
| 2026-05-06 08:42 | 53.43549 | -6.25034 | 219 ft | 131 kts | 276° |
| 2026-05-06 08:42 | 53.43624 | -6.26377 | 213 ft | 75 kts | 275° |
| 2026-05-06 08:42 | 53.43652 | -6.26899 | 218 ft | 29 kts | 274° |
| 2026-05-06 08:43 | 53.43627 | -6.27230 | 215 ft | 28 kts | 250° |
| 2026-05-06 08:43 | 53.43567 | -6.27449 | 213 ft | 15 kts | 217° |
| 2026-05-06 08:43 | 53.43506 | -6.27368 | 214 ft | 13 kts | 97° |
| 2026-05-06 08:43 | 53.43497 | -6.27218 | 214 ft | 13 kts | 95° |
| 2026-05-06 08:44 | 53.43486 | -6.27003 | 211 ft | 25 kts | 95° |
| 2026-05-06 08:44 | 53.43468 | -6.26683 | 211 ft | 27 kts | 95° |
| 2026-05-06 08:44 | 53.43455 | -6.26432 | 213 ft | 17 kts | 97° |
| 2026-05-06 08:44 | 53.43381 | -6.26286 | 211 ft | 16 kts | 140° |
| 2026-05-06 08:45 | 53.43300 | -6.26160 | 211 ft | 15 kts | 112° |
| 2026-05-06 08:45 | 53.43327 | -6.25995 | 213 ft | 16 kts | 66° |
| 2026-05-06 08:45 | 53.43381 | -6.25789 | 215 ft | 17 kts | 67° |
| 2026-05-06 08:45 | 53.43362 | -6.25656 | 211 ft | 13 kts | 147° |
| 2026-05-06 08:46 | 53.43267 | -6.25586 | 211 ft | 16 kts | 156° |
| 2026-05-06 08:46 | 53.43159 | -6.25507 | 213 ft | 21 kts | 156° |
| 2026-05-06 08:46 | 53.43004 | -6.25396 | 220 ft | 24 kts | 156° |
| 2026-05-06 08:46 | 53.42867 | -6.25297 | 217 ft | 19 kts | 157° |
| 2026-05-06 08:47 | 53.42795 | -6.25173 | 217 ft | 14 kts | 98° |
| 2026-05-06 08:47 | 53.42792 | -6.25045 | 216 ft | 10 kts | 84° |
| 2026-05-06 08:47 | 53.42796 | -6.24937 | 211 ft | 7 kts | 86° |
| 2026-05-06 08:47 | 53.42798 | -6.24890 | 219 ft | 1 kts | 86° |
| 2026-05-06 08:48 | 53.42798 | -6.24887 | 219 ft | 0 kts | 86° |